Flight Track Log - Related Links

Times and Time Zones

All times are in EDT time to prevent confusion due to time zone crossing. See the JZA7983 flight status page for this flight to view local times or setup timezone preferences in your user account.

Time Position Orientation Groundspeed Altitude Reporting Facility
EDT Latitude Longitude Course Direction KTS MPH feet Rate Location/Type
Mon 06:58:36 PM 43.6667 -79.5833 216° Southwest 10 12 500  Level Toronto Center
Mon 07:02:07 PM 43.6333 -79.6167 216° Southwest 160 184 2,400 554 Climbing Toronto Center
Mon 07:03:07 PM 43.6000 -79.6500 216° Southwest 200 230 3,000 793 Climbing Toronto Center
Mon 07:04:08 PM 43.5500 -79.7000 216° Southwest 210 242 4,000 1,934 Climbing Toronto Center
Mon 07:05:08 PM 43.5000 -79.7667 224° Southwest 220 253 6,900 2,800 Climbing Toronto Center
Mon 07:06:08 PM 43.4500 -79.8333 224° Southwest 260 299 9,600 2,000 Climbing Toronto Center
Mon 07:07:08 PM 43.4000 -79.9333 235° Southwest 300 345 10,900 1,500 Climbing Toronto Center
Mon 07:08:08 PM 43.3333 -80.0167 222° Southwest 330 380 12,600 1,700 Climbing Toronto Center
Mon 07:09:08 PM 43.2500 -80.1167 221° Southwest 350 403 14,300 1,450 Climbing Toronto Center
Mon 07:10:08 PM 43.1833 -80.2000 222° Southwest 360 414 15,500 1,250 Climbing Toronto Center
Mon 07:11:08 PM 43.1167 -80.3000 228° Southwest 370 426 16,800 1,150 Climbing Toronto Center
Mon 07:12:08 PM 43.0333 -80.4167 226° Southwest 380 437 17,800 1,008 Climbing Toronto Center
Mon 07:13:07 PM 42.9667 -80.5167 228° Southwest 390 449 18,800 958 Climbing Toronto Center
Mon 07:14:07 PM 42.8833 -80.6167 221° Southwest 390 449 19,700 850 Climbing Toronto Center
Mon 07:15:07 PM 42.8167 -80.7167 228° Southwest 400 460 20,500 650 Climbing Toronto Center
Mon 07:16:07 PM 42.7167 -80.8333 221° Southwest 400 460 21,000 436 Climbing Toronto Center
Mon 07:16:57 PM 42.6661 -80.9306 235° Southwest 402 463 21,300 273 Climbing Cleveland Center
Mon 07:17:57 PM 42.5678 -81.0231 215° Southwest 427 491 21,500 500 Climbing Cleveland Center
Mon 07:18:57 PM 42.4672 -81.1208 216° Southwest 441 507 22,300 700 Climbing Cleveland Center
Mon 07:19:57 PM 42.3689 -81.2128 215° Southwest 441 507 22,900 650 Climbing Cleveland Center
Mon 07:20:57 PM 42.2703 -81.3100 216° Southwest 441 507 23,600 700 Climbing Cleveland Center
Mon 07:21:57 PM 42.1697 -81.4039 215° Southwest 433 498 24,300 750 Climbing Cleveland Center
Mon 07:22:57 PM 42.0731 -81.4922 214° Southwest 433 498 25,100 800 Climbing Cleveland Center
Mon 07:23:57 PM 41.9681 -81.5942 216° Southwest 447 514 25,900 900 Climbing Cleveland Center
Mon 07:24:57 PM 41.8650 -81.6928 215° Southwest 466 536 26,900 1,000 Climbing Cleveland Center
Mon 07:25:57 PM 41.7514 -81.7967 214° Southwest 482 555 27,900 1,250 Climbing Cleveland Center
Mon 07:26:57 PM 41.6439 -81.9003 216° Southwest 487 560 29,400 1,050 Climbing Cleveland Center
Mon 07:27:57 PM 41.5428 -81.9897 214° Southwest 487 560 30,000 700 Climbing Cleveland Center
Mon 07:28:57 PM 41.4183 -82.1061 215° Southwest 498 573 30,800 950 Climbing Cleveland Center
Mon 07:29:57 PM 41.2942 -82.1861 206° Southwest 498 573 31,900 600 Climbing Cleveland Center
Mon 07:30:57 PM 41.1517 -82.2378 195° South 511 588 32,000 50 Climbing Cleveland Center
Mon 07:31:57 PM 41.0239 -82.2814 194° South 535 616 32,000  Level Cleveland Center
Mon 07:32:57 PM 40.8708 -82.3350 195° South 553 636 32,000  Level Cleveland Center
Mon 07:34:47 PM 40.5953 -82.4331 195° South 571 657 32,000 -140 Level Indianapolis Center
Mon 07:35:49 PM 40.4428 -82.4908 196° South 567 652 31,600 -1,355 Descending Indianapolis Center
Mon 07:36:51 PM 40.2981 -82.6267 216° Southwest 538 619 29,200 -1,694 Descending Indianapolis Center
Mon 07:37:53 PM 40.2028 -82.7439 223° Southwest 514 592 28,100 -1,016 Descending Indianapolis Center
Mon 07:38:55 PM 40.0975 -82.8719 223° Southwest 513 590 27,100 -976 Descending Indianapolis Center
Mon 07:39:56 PM 39.9922 -82.9986 223° Southwest 509 586 26,100 -1,073 Descending Indianapolis Center
Mon 07:40:58 PM 39.9075 -83.1711 237° Southwest 478 550 24,900 -1,065 Descending Indianapolis Center
Mon 07:42:00 PM 39.8433 -83.3231 241° Southwest 473 544 23,900 -919 Descending Indianapolis Center
Mon 07:43:02 PM 39.7872 -83.4508 240° Southwest 469 540 23,000 -1,597 Descending Indianapolis Center
Mon 07:44:04 PM 39.7239 -83.5992 241° Southwest 454 522 20,600 -2,634 Descending Indianapolis Center
Mon 07:45:05 PM 39.6572 -83.7575 241° Southwest 427 491 17,600 -2,829 Descending Indianapolis Center
Mon 07:46:07 PM 39.6022 -83.8842 241° Southwest 402 463 14,800 -2,661 Descending Indianapolis Center
Mon 07:47:09 PM 39.5319 -83.9939 230° Southwest 392 451 12,100 -1,902 Descending Indianapolis Center
Mon 07:48:10 PM 39.4589 -84.0956 227° Southwest 384 442 10,900 -537 Descending Indianapolis Center
Mon 07:49:12 PM 39.3869 -84.1956 227° Southwest 378 435 11,000 48 Climbing Indianapolis Center
Mon 07:50:14 PM 39.3125 -84.2961 226° Southwest 382 440 11,000 -146 Level Indianapolis Center
Mon 07:51:15 PM 39.2400 -84.3961 227° Southwest 380 437 10,700 -634 Descending Indianapolis Center
Mon 07:52:17 PM 39.1794 -84.4783 226° Southwest 328 377 9,700 -829 Descending Indianapolis Center
Mon 07:53:18 PM 39.1089 -84.5289 209° Southwest 309 356 9,000 -1,113 Descending Indianapolis Center
Mon 07:53:54 PM 39.0500 -84.5333 183° South 287 330 7,900 -2,188 Descending Cincinnati TRACON
Mon 07:54:54 PM 38.9833 -84.5333 180° South 272 313 5,500 -1,950 Descending Cincinnati TRACON
Mon 07:55:54 PM 38.9000 -84.5333 180° South 253 291 4,000 -750 Descending Cincinnati TRACON
Mon 07:56:54 PM 38.8500 -84.5833 218° Southwest 205 236 4,000  Level Cincinnati TRACON
Mon 07:57:54 PM 38.8667 -84.6500 288° West 194 223 4,000 -300 Level Cincinnati TRACON
Mon 07:58:54 PM 38.9000 -84.6667 339° North 173 199 3,400 -750 Descending Cincinnati TRACON
Mon 07:59:54 PM 38.9500 -84.6667 360° North 178 205 2,500 -895 Descending Cincinnati TRACON
Mon 08:00:48 PM 39.0000 -84.6667 360° North 155 178 1,700 -889 Descending Cincinnati TRACON

Login

Don't have an account? Register now (free) for customized features, flight alerts, and more!